HOU weather

William P Hobby Airport
Houston, Texas, United States

Public forecast

Using degrees Fahrenheit for public forecast. Weather courtesy of forecast.io.

Current aviation weather report (METAR) for William P Hobby Airport

Retrieved 2020/06/03 18:53 UTC (49 minutes ago):

KHOU 031853Z 15011KT 10SM SCT030 BKN150 BKN250 31/22 A2995 RMK AO2 LTG DSNT S-W SLP146 CB DSNT SW-W T03110222

Aviation forecast (TAF) for William P Hobby Airport

Retrieved 2020/06/03 18:36 UTC (1 hour ago):

TAF KHOU 031733Z 0318/0418 VRB05KT P6SM VCSH SCT035 BKN170 TEMPO 0318/0321 VRB15KT 6SM TSRA BKN035CB FM032200 15005KT P6SM FEW040 SCT150 FM041000 VRB02KT P6SM SCT020 SCT200 FM041600 19005KT P6SM SCT035